Time;durP1;ratioP1;P1;durP2;ratioP2;P2;SDS_P1;SDS_P2;PMS_P1;PMS_P2;Temp;Humidity;BMP_temperature;BMP_pressure;BME280_temperature;BME280_humidity;BME280_pressure;Samples;Min_cycle;Max_cycle;Signal;HPM_P1;HPM_P2
2022/08/23 00:02:21;;;;;;;3.05;2.80;;;;;;;;;;5118393;28;20213;-68
2022/08/23 00:04:49;;;;;;;3.00;2.80;;;;;;;;;;5121598;28;20693;-68
2022/08/23 00:07:16;;;;;;;2.60;2.40;;;;;;;;;;5121877;28;20256;-68
2022/08/23 00:09:44;;;;;;;3.20;2.60;;;;;;;;;;5121095;28;20214;-67
2022/08/23 00:12:13;;;;;;;2.83;2.63;;;;;;;;;;5120912;28;20206;-68
2022/08/23 00:14:43;;;;;;;2.90;2.70;;;;;;;;;;5121263;28;20225;-67
2022/08/23 00:17:11;;;;;;;2.50;2.30;;;;;;;;;;5121655;28;20202;-67
2022/08/23 00:19:40;;;;;;;2.78;2.50;;;;;;;;;;5121602;28;20199;-67
2022/08/23 00:22:07;;;;;;;2.78;2.58;;;;;;;;;;5121410;28;20264;-68
2022/08/23 00:24:35;;;;;;;2.83;2.63;;;;;;;;;;5120729;28;20227;-67
2022/08/23 00:27:06;;;;;;;2.75;2.55;;;;;;;;;;5120749;28;20267;-67
2022/08/23 00:29:35;;;;;;;2.60;2.40;;;;;;;;;;5121800;28;20216;-68
2022/08/23 00:32:02;;;;;;;4.35;3.03;;;;;;;;;;5121804;28;20203;-68
2022/08/23 00:34:30;;;;;;;2.80;2.60;;;;;;;;;;5121729;28;20260;-68
2022/08/23 00:36:59;;;;;;;3.00;2.70;;;;;;;;;;5120622;27;20231;-68
2022/08/23 00:39:27;;;;;;;2.88;2.67;;;;;;;;;;5121466;28;20203;-67
2022/08/23 00:41:57;;;;;;;2.70;2.50;;;;;;;;;;5120713;28;20642;-67
2022/08/23 00:50:03;;;;;;;2.97;2.78;;;;;;;;;;5121073;28;20186;-68
2022/08/23 00:52:36;;;;;;;2.97;2.60;;;;;;;;;;5121314;28;20271;-68
2022/08/23 00:55:03;;;;;;;2.80;2.60;;;;;;;;;;5120543;28;20207;-67
2022/08/23 00:57:31;;;;;;;2.70;2.50;;;;;;;;;;5120554;28;20315;-68
2022/08/23 00:59:58;;;;;;;3.03;2.30;;;;;;;;;;5120868;28;20203;-67
2022/08/23 01:02:26;;;;;;;2.75;2.55;;;;;;;;;;5120816;28;20223;-67
2022/08/23 01:04:55;;;;;;;2.92;2.60;;;;;;;;;;5100348;28;20225;-67
2022/08/23 01:07:29;;;;;;;2.58;2.38;;;;;;;;;;5100175;28;20215;-67
2022/08/23 01:10:01;;;;;;;2.50;2.40;;;;;;;;;;5100399;28;20203;-68
2022/08/23 01:12:30;;;;;;;2.70;2.50;;;;;;;;;;5100202;28;20211;-68
2022/08/23 01:15:00;;;;;;;2.47;2.28;;;;;;;;;;5099740;28;20207;-68
2022/08/23 01:17:29;;;;;;;2.88;2.67;;;;;;;;;;5100271;28;20265;-67
2022/08/23 01:19:57;;;;;;;3.67;2.60;;;;;;;;;;5099754;28;20270;-67
2022/08/23 01:22:28;;;;;;;2.70;2.50;;;;;;;;;;5099857;28;20215;-67
2022/08/23 01:24:57;;;;;;;2.45;2.30;;;;;;;;;;5099513;28;20573;-68
2022/08/23 01:27:26;;;;;;;2.30;2.10;;;;;;;;;;5100334;28;20208;-67
2022/08/23 01:29:53;;;;;;;2.42;2.20;;;;;;;;;;5101230;28;20684;-67
2022/08/23 01:32:20;;;;;;;2.33;2.22;;;;;;;;;;5120495;28;20256;-67
2022/08/23 01:34:48;;;;;;;2.40;2.22;;;;;;;;;;5120113;28;20264;-67
2022/08/23 01:37:15;;;;;;;2.10;2.00;;;;;;;;;;5119682;28;20195;-67
2022/08/23 01:39:43;;;;;;;2.30;2.10;;;;;;;;;;5120437;28;20467;-68
2022/08/23 01:42:11;;;;;;;2.40;2.20;;;;;;;;;;5119889;28;20325;-68
2022/08/23 01:44:39;;;;;;;2.50;2.30;;;;;;;;;;5120135;28;20235;-67
2022/08/23 01:47:06;;;;;;;2.60;2.40;;;;;;;;;;5119721;28;20256;-67
2022/08/23 01:49:34;;;;;;;2.40;2.20;;;;;;;;;;5119837;28;20211;-67
2022/08/23 01:52:01;;;;;;;2.53;2.40;;;;;;;;;;5119564;28;20289;-67
2022/08/23 01:54:29;;;;;;;2.72;2.33;;;;;;;;;;5119457;28;20601;-67
2022/08/23 01:56:56;;;;;;;2.58;2.38;;;;;;;;;;5119364;28;20552;-67
2022/08/23 01:59:25;;;;;;;2.53;2.33;;;;;;;;;;5119028;28;20214;-67
2022/08/23 02:01:53;;;;;;;2.47;2.20;;;;;;;;;;5119298;28;20225;-68
2022/08/23 02:04:21;;;;;;;2.45;2.35;;;;;;;;;;5119558;27;20511;-68
2022/08/23 02:06:48;;;;;;;2.63;2.38;;;;;;;;;;5119367;28;20203;-68
2022/08/23 02:09:15;;;;;;;2.60;2.40;;;;;;;;;;5119146;28;20211;-67
2022/08/23 02:11:43;;;;;;;2.42;2.22;;;;;;;;;;5118939;28;20494;-68
2022/08/23 02:14:11;;;;;;;2.67;2.47;;;;;;;;;;5119415;28;20199;-67
2022/08/23 02:16:41;;;;;;;2.60;2.40;;;;;;;;;;5119143;28;20203;-68
2022/08/23 02:19:10;;;;;;;2.67;2.47;;;;;;;;;;5118866;28;20260;-67
2022/08/23 02:21:37;;;;;;;2.42;2.33;;;;;;;;;;5119040;28;20268;-67
2022/08/23 02:24:06;;;;;;;2.40;2.30;;;;;;;;;;5118996;28;20226;-68
2022/08/23 02:26:33;;;;;;;2.78;2.58;;;;;;;;;;5117561;28;20781;-67
2022/08/23 02:29:01;;;;;;;2.55;2.22;;;;;;;;;;5118685;28;20260;-68
2022/08/23 02:31:28;;;;;;;2.42;2.33;;;;;;;;;;5118047;28;20371;-67
2022/08/23 02:33:57;;;;;;;3.08;2.20;;;;;;;;;;5119265;28;20218;-68
2022/08/23 02:36:24;;;;;;;2.50;2.40;;;;;;;;;;5119048;28;20267;-68
2022/08/23 02:38:51;;;;;;;2.95;2.45;;;;;;;;;;5119143;28;20206;-67
2022/08/23 02:41:19;;;;;;;2.50;2.30;;;;;;;;;;5118405;28;20291;-68
2022/08/23 02:43:46;;;;;;;2.58;2.38;;;;;;;;;;5118629;28;20203;-67
2022/08/23 02:46:13;;;;;;;3.00;2.42;;;;;;;;;;5118775;28;20203;-67
2022/08/23 02:48:41;;;;;;;2.70;2.50;;;;;;;;;;5118853;28;20213;-68
2022/08/23 02:51:10;;;;;;;2.20;2.10;;;;;;;;;;5118371;28;20214;-68
2022/08/23 02:53:38;;;;;;;2.75;2.55;;;;;;;;;;5118145;28;20195;-67
2022/08/23 02:56:06;;;;;;;2.60;2.40;;;;;;;;;;5118288;28;20203;-67
2022/08/23 02:58:33;;;;;;;2.60;2.40;;;;;;;;;;5118882;28;20195;-67
2022/08/23 03:01:01;;;;;;;2.50;2.30;;;;;;;;;;5117929;28;20203;-67
2022/08/23 03:03:29;;;;;;;2.40;2.20;;;;;;;;;;5118018;28;20269;-68
2022/08/23 03:05:56;;;;;;;2.60;2.40;;;;;;;;;;5117887;27;20514;-68
2022/08/23 03:08:25;;;;;;;2.80;2.60;;;;;;;;;;5118366;28;20213;-67
2022/08/23 03:10:53;;;;;;;2.60;2.40;;;;;;;;;;5118255;28;20271;-67
2022/08/23 03:13:20;;;;;;;2.80;2.60;;;;;;;;;;5117871;28;20214;-67
2022/08/23 03:15:48;;;;;;;2.10;2.00;;;;;;;;;;5117948;28;20206;-67
2022/08/23 03:18:16;;;;;;;2.90;2.42;;;;;;;;;;5118244;28;20543;-67
2022/08/23 03:20:43;;;;;;;2.72;2.53;;;;;;;;;;5117033;28;20206;-67
2022/08/23 03:23:12;;;;;;;2.80;2.60;;;;;;;;;;5117296;28;20203;-67
2022/08/23 03:25:41;;;;;;;2.53;2.33;;;;;;;;;;5117648;28;20222;-67
2022/08/23 03:28:08;;;;;;;2.35;2.25;;;;;;;;;;5118158;28;20203;-67
2022/08/23 03:30:35;;;;;;;2.67;2.47;;;;;;;;;;5118035;28;20446;-67
2022/08/23 03:33:03;;;;;;;2.40;2.30;;;;;;;;;;5117883;28;20210;-68
2022/08/23 03:35:30;;;;;;;2.42;2.33;;;;;;;;;;5117857;28;20203;-68
2022/08/23 03:37:58;;;;;;;2.33;2.22;;;;;;;;;;5117295;28;20211;-68
2022/08/23 03:40:25;;;;;;;2.60;2.40;;;;;;;;;;5117611;28;20214;-68
2022/08/23 03:42:54;;;;;;;2.80;2.60;;;;;;;;;;5117260;28;20571;-68
2022/08/23 03:45:21;;;;;;;2.35;2.20;;;;;;;;;;5116744;28;20283;-68
2022/08/23 03:47:49;;;;;;;2.60;2.40;;;;;;;;;;5117710;28;20241;-68
2022/08/23 03:50:16;;;;;;;3.15;2.90;;;;;;;;;;5117295;28;20271;-68
2022/08/23 03:52:44;;;;;;;2.78;2.58;;;;;;;;;;5117163;28;20587;-67
2022/08/23 03:55:11;;;;;;;2.70;2.50;;;;;;;;;;5116775;28;20199;-68
2022/08/23 03:57:39;;;;;;;2.55;2.38;;;;;;;;;;5116760;28;20209;-67
2022/08/23 04:00:09;;;;;;;2.47;2.38;;;;;;;;;;5117058;28;20206;-67
2022/08/23 04:02:37;;;;;;;2.72;2.53;;;;;;;;;;5117079;28;20458;-67
2022/08/23 04:05:04;;;;;;;2.70;2.50;;;;;;;;;;5116935;28;20234;-68
2022/08/23 04:07:32;;;;;;;2.60;2.40;;;;;;;;;;5116927;28;20210;-67
2022/08/23 04:09:59;;;;;;;2.67;2.47;;;;;;;;;;5116788;28;20207;-67
2022/08/23 04:12:27;;;;;;;3.10;2.50;;;;;;;;;;5116648;28;20206;-68
2022/08/23 04:14:54;;;;;;;2.85;2.65;;;;;;;;;;5115865;28;20195;-67
2022/08/23 04:17:23;;;;;;;2.58;2.35;;;;;;;;;;5116491;28;20293;-67
2022/08/23 04:19:51;;;;;;;2.90;2.70;;;;;;;;;;5116998;28;20211;-67
2022/08/23 04:22:19;;;;;;;3.70;2.60;;;;;;;;;;5116311;28;20211;-67
2022/08/23 04:24:47;;;;;;;2.72;2.53;;;;;;;;;;5115965;28;20227;-67
2022/08/23 04:27:15;;;;;;;2.40;2.30;;;;;;;;;;5116357;28;20195;-67
2022/08/23 04:29:42;;;;;;;2.42;2.25;;;;;;;;;;5116006;28;20199;-67
2022/08/23 04:32:11;;;;;;;2.38;2.25;;;;;;;;;;5115746;28;20211;-67
2022/08/23 04:34:41;;;;;;;3.95;2.40;;;;;;;;;;5115956;28;20496;-67
2022/08/23 04:37:08;;;;;;;2.50;2.30;;;;;;;;;;5116569;28;20209;-67
2022/08/23 04:42:16;;;;;;;2.80;2.60;;;;;;;;;;5115906;28;20199;-67
2022/08/23 04:42:22;;;;;;;2.33;2.22;;;;;;;;;;5114485;28;20539;-67
2022/08/23 04:44:50;;;;;;;2.70;2.58;;;;;;;;;;5116391;28;20321;-67
2022/08/23 04:47:19;;;;;;;2.75;2.55;;;;;;;;;;5115342;28;20210;-67
2022/08/23 04:49:47;;;;;;;2.72;2.50;;;;;;;;;;5118820;28;20203;-68
2022/08/23 04:52:15;;;;;;;2.92;2.72;;;;;;;;;;5119935;27;20260;-67
2022/08/23 04:54:42;;;;;;;2.25;2.13;;;;;;;;;;5119481;28;20583;-67
2022/08/23 04:57:09;;;;;;;2.90;2.65;;;;;;;;;;5120201;28;20590;-67
2022/08/23 04:59:37;;;;;;;2.80;2.60;;;;;;;;;;5120947;28;20207;-67
2022/08/23 05:02:04;;;;;;;2.90;2.70;;;;;;;;;;5119706;27;20201;-67
2022/08/23 05:04:32;;;;;;;2.60;2.40;;;;;;;;;;5118652;28;20226;-67
2022/08/23 05:07:02;;;;;;;2.80;2.60;;;;;;;;;;5118328;28;20215;-67
2022/08/23 05:09:31;;;;;;;2.80;2.60;;;;;;;;;;5119708;28;20706;-67
2022/08/23 05:11:59;;;;;;;3.03;2.72;;;;;;;;;;5119241;28;20206;-67
2022/08/23 05:14:26;;;;;;;2.97;2.67;;;;;;;;;;5118213;28;20594;-67
2022/08/23 05:16:54;;;;;;;2.60;2.50;;;;;;;;;;5117692;28;20214;-67
2022/08/23 05:19:21;;;;;;;2.70;2.50;;;;;;;;;;5117061;28;20195;-66
2022/08/23 05:21:49;;;;;;;5.63;2.50;;;;;;;;;;5118376;27;20211;-66
2022/08/23 05:24:17;;;;;;;3.13;2.70;;;;;;;;;;5117925;28;20207;-67
2022/08/23 05:26:45;;;;;;;2.83;2.63;;;;;;;;;;5118146;28;20226;-67
2022/08/23 05:29:12;;;;;;;2.42;2.33;;;;;;;;;;5117311;28;20203;-67
2022/08/23 05:31:39;;;;;;;4.15;2.63;;;;;;;;;;5117784;28;20203;-67
2022/08/23 05:34:07;;;;;;;2.53;2.33;;;;;;;;;;5117966;28;20202;-67
2022/08/23 05:36:34;;;;;;;2.97;2.30;;;;;;;;;;5118126;28;20297;-67
2022/08/23 05:39:01;;;;;;;2.80;2.60;;;;;;;;;;5117782;28;20276;-67
2022/08/23 05:41:30;;;;;;;3.08;2.88;;;;;;;;;;5118063;28;20927;-67
2022/08/23 05:43:57;;;;;;;3.72;2.80;;;;;;;;;;5118215;28;20203;-68
2022/08/23 05:46:25;;;;;;;2.90;2.70;;;;;;;;;;5117229;28;21643;-68
2022/08/23 05:48:52;;;;;;;2.72;2.53;;;;;;;;;;5117991;28;20216;-68
2022/08/23 05:51:21;;;;;;;3.05;2.85;;;;;;;;;;5117117;28;20255;-67
2022/08/23 05:53:49;;;;;;;3.13;2.92;;;;;;;;;;5117259;28;20234;-67
2022/08/23 05:56:17;;;;;;;3.28;2.97;;;;;;;;;;5116905;28;20203;-68
2022/08/23 05:58:46;;;;;;;2.97;2.78;;;;;;;;;;5117412;28;20207;-68
2022/08/23 06:01:14;;;;;;;2.95;2.75;;;;;;;;;;5116770;28;20207;-67
2022/08/23 06:03:41;;;;;;;3.10;2.88;;;;;;;;;;5115748;28;20213;-67
2022/08/23 06:06:10;;;;;;;3.53;3.33;;;;;;;;;;5115644;27;20211;-67
2022/08/23 06:08:38;;;;;;;3.55;3.35;;;;;;;;;;5115965;28;20203;-67
2022/08/23 06:11:07;;;;;;;3.28;3.03;;;;;;;;;;5116394;28;20212;-67
2022/08/23 06:13:35;;;;;;;3.53;3.22;;;;;;;;;;5117035;28;20260;-67
2022/08/23 06:16:06;;;;;;;3.65;3.40;;;;;;;;;;5116141;28;20207;-67
2022/08/23 06:18:33;;;;;;;3.25;3.05;;;;;;;;;;5116783;27;20264;-67
2022/08/23 06:21:01;;;;;;;3.40;3.20;;;;;;;;;;5115640;28;20583;-67
2022/08/23 06:23:29;;;;;;;3.35;3.15;;;;;;;;;;5116019;28;20206;-68
2022/08/23 06:25:57;;;;;;;3.60;3.33;;;;;;;;;;5116413;28;20684;-67
2022/08/23 06:28:24;;;;;;;3.30;2.95;;;;;;;;;;5117959;28;20211;-68
2022/08/23 06:30:54;;;;;;;3.25;3.05;;;;;;;;;;5117062;28;20690;-67
2022/08/23 06:33:22;;;;;;;4.25;3.63;;;;;;;;;;5115875;28;20210;-67
2022/08/23 06:35:50;;;;;;;3.47;3.13;;;;;;;;;;5114007;28;20295;-67
2022/08/23 06:38:18;;;;;;;3.50;3.20;;;;;;;;;;5115882;28;20237;-67
2022/08/23 06:40:45;;;;;;;3.30;3.10;;;;;;;;;;5116251;28;20238;-67
2022/08/23 06:43:12;;;;;;;3.13;2.83;;;;;;;;;;5115511;28;20306;-67
2022/08/23 06:45:40;;;;;;;3.28;3.08;;;;;;;;;;5115057;28;20277;-68
2022/08/23 06:48:09;;;;;;;3.10;2.90;;;;;;;;;;5115073;28;20291;-68
2022/08/23 06:50:38;;;;;;;3.40;3.20;;;;;;;;;;5115285;28;20218;-68
2022/08/23 06:53:05;;;;;;;3.80;3.40;;;;;;;;;;5115373;28;20199;-68
2022/08/23 06:55:34;;;;;;;3.78;3.47;;;;;;;;;;5113597;28;20202;-68
2022/08/23 06:58:02;;;;;;;3.45;3.17;;;;;;;;;;5113331;28;20234;-68
2022/08/23 07:00:29;;;;;;;3.60;3.30;;;;;;;;;;5113010;28;20203;-68
2022/08/23 07:02:57;;;;;;;3.33;3.13;;;;;;;;;;5114657;28;20235;-68
2022/08/23 07:05:24;;;;;;;3.50;3.25;;;;;;;;;;5113790;28;20330;-68
2022/08/23 07:07:53;;;;;;;3.40;3.20;;;;;;;;;;5114642;28;20235;-67
2022/08/23 07:10:20;;;;;;;3.63;3.33;;;;;;;;;;5114577;28;20203;-68
2022/08/23 07:12:49;;;;;;;3.08;2.80;;;;;;;;;;5113853;28;20769;-68
2022/08/23 07:15:16;;;;;;;3.50;3.20;;;;;;;;;;5113730;28;20252;-68
2022/08/23 07:17:44;;;;;;;3.35;3.15;;;;;;;;;;5115187;28;20397;-67
2022/08/23 07:20:11;;;;;;;3.80;3.50;;;;;;;;;;5115168;28;20275;-67
2022/08/23 07:22:39;;;;;;;3.47;3.28;;;;;;;;;;5114284;28;20210;-67
2022/08/23 07:25:08;;;;;;;3.30;3.00;;;;;;;;;;5115739;28;20221;-67
2022/08/23 07:27:35;;;;;;;3.65;3.35;;;;;;;;;;5114308;28;20264;-67
2022/08/23 07:30:02;;;;;;;3.17;2.97;;;;;;;;;;5113070;28;20199;-67
2022/08/23 07:32:30;;;;;;;3.35;3.15;;;;;;;;;;5113518;28;20202;-68
2022/08/23 07:34:57;;;;;;;3.50;3.20;;;;;;;;;;5114646;28;20206;-67
2022/08/23 07:37:25;;;;;;;3.50;3.20;;;;;;;;;;5114286;28;20199;-68
2022/08/23 07:39:52;;;;;;;3.38;3.13;;;;;;;;;;5113764;28;20203;-67
2022/08/23 07:42:21;;;;;;;3.20;3.00;;;;;;;;;;5114451;28;20615;-66
2022/08/23 07:44:48;;;;;;;3.25;3.05;;;;;;;;;;5113541;28;20213;-68
2022/08/23 07:47:15;;;;;;;3.75;3.00;;;;;;;;;;5114363;28;20223;-68
2022/08/23 07:49:43;;;;;;;3.58;3.33;;;;;;;;;;5113772;28;20210;-68
2022/08/23 07:52:10;;;;;;;3.17;2.90;;;;;;;;;;5113182;28;20209;-68
2022/08/23 07:54:37;;;;;;;3.30;3.00;;;;;;;;;;5112885;28;20275;-67
2022/08/23 07:57:05;;;;;;;3.75;3.00;;;;;;;;;;5113113;28;20195;-68
2022/08/23 07:59:33;;;;;;;3.00;2.80;;;;;;;;;;5113424;28;20209;-68
2022/08/23 08:02:01;;;;;;;2.97;2.78;;;;;;;;;;5112243;28;20644;-67
2022/08/23 08:04:28;;;;;;;2.85;2.65;;;;;;;;;;5114175;28;20205;-67
2022/08/23 08:06:57;;;;;;;3.00;2.70;;;;;;;;;;5113813;28;20234;-68
2022/08/23 08:09:24;;;;;;;2.85;2.65;;;;;;;;;;5112412;28;20202;-67
2022/08/23 08:11:52;;;;;;;3.17;2.88;;;;;;;;;;5113175;28;20203;-68
2022/08/23 08:14:19;;;;;;;3.10;2.80;;;;;;;;;;5112915;28;20339;-68
2022/08/23 08:16:49;;;;;;;2.75;2.55;;;;;;;;;;5112905;28;20318;-67
2022/08/23 08:19:18;;;;;;;2.88;2.67;;;;;;;;;;5112367;28;20640;-67
2022/08/23 08:21:46;;;;;;;2.80;2.60;;;;;;;;;;5113269;28;20302;-68
2022/08/23 08:24:15;;;;;;;2.70;2.50;;;;;;;;;;5114543;28;20584;-69
2022/08/23 08:26:42;;;;;;;3.00;2.80;;;;;;;;;;5116285;28;20317;-68
2022/08/23 08:29:11;;;;;;;2.72;2.53;;;;;;;;;;5116794;28;20571;-67
2022/08/23 08:31:38;;;;;;;2.72;2.53;;;;;;;;;;5116585;28;20243;-68
2022/08/23 08:34:07;;;;;;;2.60;2.40;;;;;;;;;;5115945;28;20523;-68
2022/08/23 08:36:36;;;;;;;2.65;2.45;;;;;;;;;;5117616;28;20286;-68
2022/08/23 08:39:04;;;;;;;2.90;2.70;;;;;;;;;;5115937;28;20333;-69
2022/08/23 08:41:38;;;;;;;2.40;2.30;;;;;;;;;;5115838;28;20239;-68
2022/08/23 08:44:09;;;;;;;2.72;2.53;;;;;;;;;;5115283;28;20514;-68
2022/08/23 08:46:41;;;;;;;3.28;2.63;;;;;;;;;;5117227;28;20622;-68
2022/08/23 08:49:13;;;;;;;4.03;2.70;;;;;;;;;;5117046;27;20462;-68
2022/08/23 08:51:46;;;;;;;3.00;2.67;;;;;;;;;;5115633;28;20347;-68
2022/08/23 08:54:15;;;;;;;2.80;2.60;;;;;;;;;;5116001;27;20256;-67
2022/08/23 08:56:42;;;;;;;3.10;2.90;;;;;;;;;;5116833;28;20199;-67
2022/08/23 08:59:14;;;;;;;2.70;2.50;;;;;;;;;;5116073;28;20207;-68
2022/08/23 09:01:41;;;;;;;3.10;2.58;;;;;;;;;;5115247;28;20307;-68
2022/08/23 09:04:10;;;;;;;2.80;2.60;;;;;;;;;;5115616;28;20205;-66
2022/08/23 09:06:44;;;;;;;2.80;2.60;;;;;;;;;;5116332;28;20271;-68
2022/08/23 09:09:19;;;;;;;3.25;2.78;;;;;;;;;;5116816;28;20457;-69
2022/08/23 09:11:51;;;;;;;2.55;2.35;;;;;;;;;;5114829;28;20543;-67
2022/08/23 09:14:33;;;;;;;2.97;2.50;;;;;;;;;;5114732;28;20206;-67
2022/08/23 09:17:04;;;;;;;2.97;2.72;;;;;;;;;;5114174;28;20199;-68
2022/08/23 09:19:35;;;;;;;3.10;2.80;;;;;;;;;;5115318;28;20598;-68
2022/08/23 09:22:05;;;;;;;2.78;2.58;;;;;;;;;;5115744;28;20209;-68
2022/08/23 09:24:32;;;;;;;2.75;2.33;;;;;;;;;;5115970;28;20203;-68
2022/08/23 09:27:00;;;;;;;3.03;2.70;;;;;;;;;;5115035;28;20649;-69
2022/08/23 09:29:28;;;;;;;2.83;2.42;;;;;;;;;;5115852;28;20235;-68
2022/08/23 09:32:00;;;;;;;2.50;2.30;;;;;;;;;;5116747;28;20202;-68
2022/08/23 09:34:40;;;;;;;2.90;2.60;;;;;;;;;;5114597;28;20206;-68
2022/08/23 09:37:12;;;;;;;4.60;2.70;;;;;;;;;;5114494;28;20324;-68
2022/08/23 09:39:41;;;;;;;2.58;2.38;;;;;;;;;;5113943;28;20210;-69
2022/08/23 09:42:09;;;;;;;2.90;2.35;;;;;;;;;;5113914;28;20729;-69
2022/08/23 09:44:38;;;;;;;2.58;2.35;;;;;;;;;;5114506;28;20203;-68
2022/08/23 09:47:08;;;;;;;2.78;2.58;;;;;;;;;;5114258;28;20322;-69
2022/08/23 09:49:35;;;;;;;2.55;2.35;;;;;;;;;;5114524;27;20275;-68
2022/08/23 09:52:13;;;;;;;2.40;2.20;;;;;;;;;;5115212;28;20656;-69
2022/08/23 09:54:41;;;;;;;2.40;2.20;;;;;;;;;;5114619;28;20610;-68
2022/08/23 09:57:10;;;;;;;3.25;2.75;;;;;;;;;;5113198;28;20653;-68
2022/08/23 09:59:41;;;;;;;2.40;2.30;;;;;;;;;;5114310;28;20230;-68
2022/08/23 10:02:14;;;;;;;2.42;2.22;;;;;;;;;;5114294;28;20203;-69
2022/08/23 10:04:42;;;;;;;2.65;2.45;;;;;;;;;;5112529;28;20195;-69
2022/08/23 10:07:24;;;;;;;3.33;2.60;;;;;;;;;;5113238;28;20321;-68
2022/08/23 10:09:53;;;;;;;3.30;3.00;;;;;;;;;;5113394;28;20202;-68
2022/08/23 10:12:21;;;;;;;3.33;2.88;;;;;;;;;;5112654;28;20248;-69
2022/08/23 10:14:48;;;;;;;3.60;2.58;;;;;;;;;;5110878;28;20302;-69
2022/08/23 10:17:23;;;;;;;2.90;2.70;;;;;;;;;;5113154;28;20191;-69
2022/08/23 10:19:54;;;;;;;2.97;2.67;;;;;;;;;;5112756;28;20641;-69
2022/08/23 10:22:24;;;;;;;2.65;2.40;;;;;;;;;;5112304;28;20195;-68
2022/08/23 10:24:57;;;;;;;4.55;2.92;;;;;;;;;;5112136;28;20246;-69
2022/08/23 10:30:17;;;;;;;4.07;3.22;;;;;;;;;;5113988;28;20210;-69
2022/08/23 10:32:47;;;;;;;5.90;3.03;;;;;;;;;;5112767;28;20212;-69
2022/08/23 10:35:24;;;;;;;6.47;3.25;;;;;;;;;;5111424;28;20223;-69
2022/08/23 10:37:58;;;;;;;4.55;3.58;;;;;;;;;;5112866;28;20199;-69
2022/08/23 10:40:28;;;;;;;6.88;4.07;;;;;;;;;;5112928;28;20301;-69
2022/08/23 10:42:59;;;;;;;5.05;3.35;;;;;;;;;;5113770;28;20461;-68
2022/08/23 10:45:28;;;;;;;6.93;3.40;;;;;;;;;;5112391;28;20195;-69
2022/08/23 10:48:02;;;;;;;5.85;3.00;;;;;;;;;;5112683;28;20223;-68
2022/08/23 10:50:33;;;;;;;6.70;3.35;;;;;;;;;;5113888;28;20194;-68
2022/08/23 10:53:05;;;;;;;4.38;3.15;;;;;;;;;;5113733;28;20598;-68
2022/08/23 10:55:53;;;;;;;5.25;3.28;;;;;;;;;;5113041;28;20210;-69
2022/08/23 10:58:22;;;;;;;5.10;3.35;;;;;;;;;;5112317;27;20205;-69
2022/08/23 11:00:50;;;;;;;4.55;2.95;;;;;;;;;;5113012;28;20275;-68
2022/08/23 11:03:21;;;;;;;6.97;3.33;;;;;;;;;;5113122;28;20533;-68
2022/08/23 11:06:03;;;;;;;5.82;2.95;;;;;;;;;;5112225;28;20533;-68
2022/08/23 11:08:33;;;;;;;8.10;2.92;;;;;;;;;;5112153;28;20231;-68
2022/08/23 11:11:00;;;;;;;4.60;3.50;;;;;;;;;;5112871;28;20210;-68
2022/08/23 11:13:29;;;;;;;3.78;3.13;;;;;;;;;;5110775;28;20203;-68
2022/08/23 11:15:59;;;;;;;5.65;2.95;;;;;;;;;;5111949;28;20214;-68
2022/08/23 11:18:37;;;;;;;3.30;2.85;;;;;;;;;;5112842;28;20279;-69
2022/08/23 11:21:06;;;;;;;4.18;3.00;;;;;;;;;;5114509;28;20203;-68
2022/08/23 11:23:43;;;;;;;4.30;2.90;;;;;;;;;;5114438;28;20203;-68
2022/08/23 11:26:12;;;;;;;5.18;3.10;;;;;;;;;;5114617;28;20251;-68
2022/08/23 11:28:41;;;;;;;2.97;2.50;;;;;;;;;;5115140;28;20300;-69
2022/08/23 11:31:22;;;;;;;3.17;2.80;;;;;;;;;;5114381;28;20210;-69
2022/08/23 11:33:52;;;;;;;3.03;2.78;;;;;;;;;;5111646;28;20661;-68
2022/08/23 11:36:22;;;;;;;3.15;2.70;;;;;;;;;;5112569;28;20203;-68
2022/08/23 11:39:10;;;;;;;4.63;2.88;;;;;;;;;;5110930;28;20372;-68
2022/08/23 11:41:57;;;;;;;4.10;2.65;;;;;;;;;;5112343;28;20548;-68
2022/08/23 11:44:28;;;;;;;4.55;2.50;;;;;;;;;;5112325;28;20575;-68
2022/08/23 11:47:03;;;;;;;3.45;2.80;;;;;;;;;;5112223;28;20426;-68
2022/08/23 11:49:48;;;;;;;2.72;2.50;;;;;;;;;;5111426;28;20293;-68
2022/08/23 11:52:30;;;;;;;3.47;2.35;;;;;;;;;;5111217;28;20195;-68
2022/08/23 11:55:10;;;;;;;3.63;2.40;;;;;;;;;;5098867;28;20196;-69
2022/08/23 11:57:49;;;;;;;2.67;2.42;;;;;;;;;;5112497;28;20253;-69
2022/08/23 12:00:20;;;;;;;3.22;2.60;;;;;;;;;;5116395;28;20370;-68
2022/08/23 12:03:00;;;;;;;2.50;2.30;;;;;;;;;;5116438;27;20203;-68
2022/08/23 12:05:43;;;;;;;2.53;2.33;;;;;;;;;;5116073;27;20567;-68
2022/08/23 12:08:31;;;;;;;2.70;2.28;;;;;;;;;;5114492;28;20369;-68
2022/08/23 12:11:00;;;;;;;2.10;1.90;;;;;;;;;;5115513;28;20210;-68
2022/08/23 12:13:33;;;;;;;2.30;2.10;;;;;;;;;;5115945;28;20199;-68
2022/08/23 12:16:10;;;;;;;2.40;2.20;;;;;;;;;;5116417;28;20233;-68
2022/08/23 12:18:39;;;;;;;3.45;2.50;;;;;;;;;;5116142;28;20199;-69
2022/08/23 12:21:09;;;;;;;2.17;2.00;;;;;;;;;;5114219;27;20271;-69
2022/08/23 12:23:45;;;;;;;2.28;1.98;;;;;;;;;;5114941;27;20241;-69
2022/08/23 12:26:25;;;;;;;2.15;1.95;;;;;;;;;;5114357;28;20594;-69
2022/08/23 12:28:56;;;;;;;2.00;1.80;;;;;;;;;;5094127;28;20219;-69
2022/08/23 12:31:30;;;;;;;2.15;1.95;;;;;;;;;;5092977;28;20207;-68
2022/08/23 12:34:05;;;;;;;2.25;2.03;;;;;;;;;;5093592;28;20204;-68
2022/08/23 12:36:36;;;;;;;2.10;1.95;;;;;;;;;;5094104;28;20568;-69
2022/08/23 12:39:06;;;;;;;2.60;1.90;;;;;;;;;;5094411;28;20260;-69
2022/08/23 12:41:36;;;;;;;2.15;2.00;;;;;;;;;;5105538;28;20314;-69
2022/08/23 12:44:05;;;;;;;2.42;1.98;;;;;;;;;;5115891;27;20207;-68
2022/08/23 12:46:36;;;;;;;2.35;2.15;;;;;;;;;;5115247;28;20211;-69
2022/08/23 12:49:04;;;;;;;2.30;2.10;;;;;;;;;;5116635;27;20262;-68
2022/08/23 12:51:31;;;;;;;2.17;1.90;;;;;;;;;;5115418;28;20210;-68
2022/08/23 12:54:12;;;;;;;2.65;1.95;;;;;;;;;;5115645;28;20210;-69
2022/08/23 12:56:39;;;;;;;2.63;2.10;;;;;;;;;;5095604;28;20218;-69
2022/08/23 12:59:07;;;;;;;1.88;1.77;;;;;;;;;;5096386;28;20538;-69
2022/08/23 13:01:37;;;;;;;2.10;1.90;;;;;;;;;;5096274;28;20234;-68
2022/08/23 13:04:07;;;;;;;2.05;1.90;;;;;;;;;;5097303;28;20196;-68
2022/08/23 13:06:35;;;;;;;2.10;1.90;;;;;;;;;;5096383;28;20211;-68
2022/08/23 13:09:04;;;;;;;1.90;1.80;;;;;;;;;;5094325;28;20696;-69
2022/08/23 13:11:33;;;;;;;1.75;1.65;;;;;;;;;;5096574;28;20230;-69
2022/08/23 13:14:01;;;;;;;2.40;2.20;;;;;;;;;;5095153;28;20215;-69
2022/08/23 13:16:32;;;;;;;2.15;2.03;;;;;;;;;;5095578;28;20203;-69
2022/08/23 13:19:15;;;;;;;2.10;2.00;;;;;;;;;;5099169;28;20260;-69
2022/08/23 13:21:42;;;;;;;1.98;1.88;;;;;;;;;;5104608;28;20260;-70
2022/08/23 13:24:29;;;;;;;2.88;2.20;;;;;;;;;;5113905;27;20210;-69
2022/08/23 13:27:10;;;;;;;2.10;1.90;;;;;;;;;;5113691;28;20297;-69
2022/08/23 13:29:48;;;;;;;1.90;1.80;;;;;;;;;;5114846;28;20279;-69
2022/08/23 13:32:25;;;;;;;1.83;1.73;;;;;;;;;;5114342;28;20541;-69
2022/08/23 13:34:55;;;;;;;2.80;1.90;;;;;;;;;;5114025;28;20533;-68
2022/08/23 13:37:29;;;;;;;2.22;2.10;;;;;;;;;;5113305;28;20199;-69
2022/08/23 13:39:58;;;;;;;2.25;2.05;;;;;;;;;;5113939;28;20199;-69
2022/08/23 13:42:26;;;;;;;2.00;1.90;;;;;;;;;;5112344;28;20235;-69
2022/08/23 13:44:54;;;;;;;2.20;1.95;;;;;;;;;;5113326;28;20342;-70
2022/08/23 13:47:23;;;;;;;2.20;2.03;;;;;;;;;;5113536;28;20299;-69
2022/08/23 13:49:52;;;;;;;2.40;2.20;;;;;;;;;;5112618;28;20199;-69
2022/08/23 13:52:21;;;;;;;1.90;1.70;;;;;;;;;;5112795;28;20301;-69
2022/08/23 13:54:48;;;;;;;2.40;2.10;;;;;;;;;;5113070;28;20264;-69
2022/08/23 13:57:17;;;;;;;2.20;2.05;;;;;;;;;;5112877;28;20203;-69
2022/08/23 13:59:48;;;;;;;2.30;1.80;;;;;;;;;;5112530;28;20203;-69
2022/08/23 14:02:17;;;;;;;2.30;2.10;;;;;;;;;;5109642;28;20599;-69
2022/08/23 14:04:45;;;;;;;1.90;1.70;;;;;;;;;;5112567;28;20207;-69
2022/08/23 14:07:13;;;;;;;1.77;1.67;;;;;;;;;;5113325;28;20213;-68
2022/08/23 14:09:42;;;;;;;1.92;1.73;;;;;;;;;;5112586;28;20306;-69
2022/08/23 14:12:13;;;;;;;2.08;1.88;;;;;;;;;;5113526;28;20203;-69
2022/08/23 14:14:41;;;;;;;1.85;1.67;;;;;;;;;;5113243;28;20199;-69
2022/08/23 14:17:09;;;;;;;2.33;2.00;;;;;;;;;;5112133;28;20199;-69
2022/08/23 14:19:37;;;;;;;2.00;1.90;;;;;;;;;;5112655;28;20287;-69
2022/08/23 14:22:05;;;;;;;2.03;1.90;;;;;;;;;;5112001;28;20236;-69
2022/08/23 14:24:32;;;;;;;2.45;2.10;;;;;;;;;;5112732;28;20272;-69
2022/08/23 14:27:02;;;;;;;2.10;1.90;;;;;;;;;;5112523;28;20453;-69
2022/08/23 14:29:30;;;;;;;2.70;1.98;;;;;;;;;;5115004;28;20231;-69
2022/08/23 14:32:00;;;;;;;2.38;2.00;;;;;;;;;;5115338;28;20566;-69
2022/08/23 14:34:28;;;;;;;2.67;2.30;;;;;;;;;;5113912;28;20324;-69
2022/08/23 14:36:55;;;;;;;2.58;2.00;;;;;;;;;;5113673;28;20202;-69
2022/08/23 14:39:23;;;;;;;2.00;1.90;;;;;;;;;;5114245;28;20297;-69
2022/08/23 14:41:50;;;;;;;2.35;2.15;;;;;;;;;;5111385;28;20518;-69
2022/08/23 14:44:19;;;;;;;2.25;2.05;;;;;;;;;;5112028;28;20202;-69
2022/08/23 14:46:46;;;;;;;2.35;2.15;;;;;;;;;;5112653;28;20598;-69
2022/08/23 14:49:14;;;;;;;2.33;2.13;;;;;;;;;;5113066;28;20287;-69
2022/08/23 14:51:43;;;;;;;2.00;1.90;;;;;;;;;;5111296;28;20740;-69
2022/08/23 14:54:12;;;;;;;2.35;2.10;;;;;;;;;;5111253;28;20213;-69
2022/08/23 14:56:40;;;;;;;2.60;2.10;;;;;;;;;;5113102;28;20264;-69
2022/08/23 14:59:07;;;;;;;2.65;2.10;;;;;;;;;;5111734;28;20199;-69
2022/08/23 15:01:37;;;;;;;2.20;2.00;;;;;;;;;;5112329;28;20199;-69
2022/08/23 15:04:04;;;;;;;2.83;2.30;;;;;;;;;;5111644;28;20206;-69
2022/08/23 15:06:32;;;;;;;2.40;2.20;;;;;;;;;;5111699;28;20267;-69